Time;durP1;ratioP1;P1;durP2;ratioP2;P2;SDS_P1;SDS_P2;PMS_P1;PMS_P2;Temp;Humidity;BMP_temperature;BMP_pressure;BME280_temperature;BME280_humidity;BME280_pressure;Samples;Min_cycle;Max_cycle;Signal;HPM_P1;HPM_P2
2020/12/11 00:01:47;;;;;;;25.98;18.13;;;14.70;49.00;;;;;;5086671;28;20109;-82
2020/12/11 00:04:33;;;;;;;26.52;18.27;;;14.70;48.90;;;;;;5088684;28;20524;-82
2020/12/11 00:07:19;;;;;;;27.00;18.88;;;14.70;49.00;;;;;;5063354;28;20044;-82
2020/12/11 00:09:45;;;;;;;26.60;18.77;;;14.70;48.90;;;;;;5076649;28;20033;-83
2020/12/11 00:12:31;;;;;;;27.13;18.83;;;14.70;48.90;;;;;;5065801;28;20101;-83
2020/12/11 00:14:57;;;;;;;26.15;18.33;;;14.70;48.90;;;;;;5076429;28;20041;-81
2020/12/11 00:17:43;;;;;;;26.40;18.50;;;14.70;48.90;;;;;;5067262;28;20040;-82
2020/12/11 00:20:29;;;;;;;27.33;18.17;;;14.70;49.00;;;;;;5047588;28;20032;-82
2020/12/11 00:22:54;;;;;;;25.83;18.27;;;14.70;49.00;;;;;;5058707;28;20097;-83
2020/12/11 00:25:20;;;;;;;23.83;17.40;;;14.70;49.00;;;;;;5059313;28;20032;-82
2020/12/11 00:28:06;;;;;;;23.15;17.13;;;14.70;49.00;;;;;;5053792;28;20064;-83
2020/12/11 00:30:32;;;;;;;23.98;16.27;;;14.60;49.00;;;;;;5074457;28;20134;-82
2020/12/11 00:33:18;;;;;;;24.52;18.02;;;14.60;49.00;;;;;;5066622;28;20098;-82
2020/12/11 00:35:44;;;;;;;24.05;16.63;;;14.60;49.00;;;;;;5088974;28;20028;-82
2020/12/11 00:38:10;;;;;;;23.27;17.80;;;14.60;49.00;;;;;;5085141;28;20043;-83
2020/12/11 00:40:36;;;;;;;22.02;15.68;;;14.70;49.10;;;;;;5076040;28;20051;-82
2020/12/11 00:43:21;;;;;;;23.65;15.85;;;14.70;49.10;;;;;;5077699;28;20508;-84
2020/12/11 00:45:47;;;;;;;23.10;16.08;;;14.70;49.10;;;;;;5095986;28;20035;-83
2020/12/11 00:48:14;;;;;;;20.42;14.98;;;14.70;49.10;;;;;;5068306;28;20048;-83
2020/12/11 00:50:40;;;;;;;21.05;14.95;;;14.70;49.10;;;;;;5075526;28;20035;-83
2020/12/11 00:53:06;;;;;;;20.55;15.00;;;14.70;49.10;;;;;;5076490;28;20120;-81
2020/12/11 00:55:32;;;;;;;20.35;15.30;;;14.70;49.10;;;;;;5062493;28;20406;-82
2020/12/11 00:57:58;;;;;;;20.42;14.98;;;14.70;49.10;;;;;;5083403;28;20081;-82
2020/12/11 01:00:43;;;;;;;19.25;14.77;;;14.70;49.10;;;;;;5066913;28;20048;-82
2020/12/11 01:03:09;;;;;;;18.20;13.82;;;14.70;49.10;;;;;;5095057;28;20040;-82
2020/12/11 01:05:35;;;;;;;18.05;14.35;;;14.70;49.10;;;;;;5093992;28;20055;-82
2020/12/11 01:08:21;;;;;;;19.88;14.23;;;14.70;49.10;;;;;;5052424;28;20044;-83
2020/12/11 01:10:47;;;;;;;18.13;13.80;;;14.70;49.10;;;;;;5095417;28;20323;-82
2020/12/11 01:13:13;;;;;;;19.40;13.93;;;14.70;49.10;;;;;;5061508;28;20097;-82
2020/12/11 01:15:39;;;;;;;20.52;14.20;;;14.70;49.10;;;;;;5069914;28;20040;-82
2020/12/11 01:18:24;;;;;;;17.38;13.32;;;14.70;49.10;;;;;;5070135;28;20044;-83
2020/12/11 01:21:10;;;;;;;19.70;14.13;;;14.70;49.20;;;;;;5060932;28;20296;-83
2020/12/11 01:23:37;;;;;;;17.65;12.95;;;14.60;49.10;;;;;;5075663;28;20028;-83
2020/12/11 01:26:22;;;;;;;18.63;13.00;;;14.60;49.00;;;;;;5080013;28;20048;-84
2020/12/11 01:29:08;;;;;;;18.88;13.07;;;14.60;49.00;;;;;;5060307;28;20093;-83
2020/12/11 01:31:34;;;;;;;18.10;12.80;;;14.70;49.70;;;;;;5075344;28;20346;-82
2020/12/11 01:34:20;;;;;;;18.10;13.00;;;14.60;49.00;;;;;;5074229;28;20101;-83
2020/12/11 01:37:06;;;;;;;15.20;12.15;;;14.60;49.70;;;;;;5073405;28;20037;-81
2020/12/11 01:40:06;;;;;;;17.15;12.68;;;14.60;49.00;;;;;;5061931;28;20078;-83
2020/12/11 01:42:51;;;;;;;17.73;13.27;;;14.60;48.90;;;;;;5063128;28;20044;-83
2020/12/11 01:45:17;;;;;;;16.42;12.50;;;14.60;49.00;;;;;;5074827;28;20108;-82
2020/12/11 01:47:45;;;;;;;16.15;12.13;;;14.60;48.90;;;;;;5068862;28;20040;-83
2020/12/11 01:50:18;;;;;;;16.02;12.05;;;14.60;49.00;;;;;;5060930;28;20056;-84
2020/12/11 01:53:05;;;;;;;15.90;12.07;;;14.60;48.90;;;;;;5066428;28;20350;-82
2020/12/11 01:55:31;;;;;;;16.10;12.18;;;14.60;49.00;;;;;;5094714;28;20036;-83
2020/12/11 01:58:01;;;;;;;18.42;12.02;;;14.60;48.90;;;;;;5080121;28;20444;-83
2020/12/11 02:00:27;;;;;;;15.65;11.70;;;14.60;49.00;;;;;;5089136;28;20082;-82
2020/12/11 02:03:08;;;;;;;16.17;11.68;;;14.60;49.00;;;;;;5095362;28;20089;-83
2020/12/11 02:05:54;;;;;;;15.18;11.77;;;14.60;48.90;;;;;;5075165;28;20049;-84
2020/12/11 02:08:39;;;;;;;15.23;11.85;;;14.60;48.90;;;;;;5077752;28;20393;-82
2020/12/11 02:11:17;;;;;;;16.33;11.95;;;14.60;48.90;;;;;;5074514;28;20033;-83
2020/12/11 02:13:42;;;;;;;14.25;10.75;;;14.60;48.90;;;;;;5075456;28;20373;-83
2020/12/11 02:16:08;;;;;;;14.30;10.98;;;14.60;48.90;;;;;;5077214;28;20040;-82
2020/12/11 02:18:39;;;;;;;14.73;11.52;;;14.60;48.90;;;;;;5058161;28;20045;-83
2020/12/11 02:21:06;;;;;;;15.38;10.85;;;14.60;48.90;;;;;;5075687;28;20431;-83
2020/12/11 02:23:51;;;;;;;13.30;10.60;;;14.60;48.90;;;;;;5080618;28;20055;-81
2020/12/11 02:26:37;;;;;;;15.13;10.35;;;14.60;48.90;;;;;;5046587;28;20049;-82
2020/12/11 02:29:24;;;;;;;13.70;10.82;;;14.60;48.90;;;;;;5059787;28;20048;-81
2020/12/11 02:31:50;;;;;;;12.25;9.68;;;14.60;48.90;;;;;;5057952;28;20048;-82
2020/12/11 02:34:37;;;;;;;12.88;10.55;;;14.60;48.90;;;;;;5055203;28;20109;-83
2020/12/11 02:37:03;;;;;;;13.27;9.40;;;14.60;48.90;;;;;;5089515;28;20063;-81
2020/12/11 02:39:30;;;;;;;12.80;10.10;;;14.60;48.90;;;;;;5082581;28;20028;-83
2020/12/11 02:41:56;;;;;;;12.65;10.10;;;14.60;48.80;;;;;;5079345;28;20039;-81
2020/12/11 02:44:41;;;;;;;13.07;10.07;;;14.60;48.90;;;;;;5062952;28;20051;-83
2020/12/11 02:47:07;;;;;;;12.35;10.05;;;14.60;48.90;;;;;;5066244;28;20346;-82
2020/12/11 02:49:33;;;;;;;11.35;9.18;;;14.60;48.80;;;;;;5091693;28;20039;-84
2020/12/11 02:51:59;;;;;;;12.90;9.55;;;14.60;48.80;;;;;;5079471;28;20032;-83
2020/12/11 02:54:46;;;;;;;12.55;10.15;;;14.60;48.80;;;;;;5067494;28;20125;-82
2020/12/11 02:57:12;;;;;;;15.05;9.80;;;14.60;48.80;;;;;;5068994;28;20081;-84
2020/12/11 02:59:38;;;;;;;12.18;9.02;;;14.60;48.80;;;;;;5074585;28;20036;-83
2020/12/11 03:02:04;;;;;;;12.55;9.80;;;14.60;48.90;;;;;;5096065;28;20028;-83
2020/12/11 03:04:50;;;;;;;12.73;9.20;;;14.60;48.90;;;;;;5060241;28;20044;-80
2020/12/11 03:07:16;;;;;;;11.38;8.30;;;14.60;48.90;;;;;;5079960;28;20319;-83
2020/12/11 03:09:42;;;;;;;11.82;9.65;;;14.60;48.90;;;;;;5074379;28;20041;-82
2020/12/11 03:12:27;;;;;;;12.15;9.88;;;14.60;48.90;;;;;;5062898;28;20036;-83
2020/12/11 03:14:53;;;;;;;12.52;8.80;;;14.60;48.80;;;;;;5070067;28;20028;-82
2020/12/11 03:17:19;;;;;;;12.52;9.52;;;14.60;48.80;;;;;;5078245;28;20506;-82
2020/12/11 03:20:05;;;;;;;11.55;8.18;;;14.60;48.80;;;;;;5058639;28;20354;-82
2020/12/11 03:22:31;;;;;;;11.10;8.75;;;14.60;48.80;;;;;;5060048;28;20124;-81
2020/12/11 03:25:16;;;;;;;12.38;8.75;;;14.60;48.80;;;;;;5054371;28;20510;-84
2020/12/11 03:27:42;;;;;;;10.60;8.50;;;14.60;48.80;;;;;;5076702;28;20115;-83
2020/12/11 03:30:08;;;;;;;13.27;8.80;;;14.60;48.70;;;;;;5068260;28;20020;-82
2020/12/11 03:32:34;;;;;;;12.32;9.40;;;14.60;48.80;;;;;;5064481;28;20099;-83
2020/12/11 03:35:00;;;;;;;11.70;8.90;;;14.60;48.80;;;;;;5059638;28;20055;-82
2020/12/11 03:37:25;;;;;;;10.32;8.23;;;14.60;48.70;;;;;;5069570;28;20033;-81
2020/12/11 03:39:51;;;;;;;11.90;9.25;;;14.60;48.70;;;;;;5089942;28;20040;-82
2020/12/11 03:42:37;;;;;;;10.10;8.18;;;14.60;48.70;;;;;;5080932;28;20036;-82
2020/12/11 03:45:03;;;;;;;10.57;8.30;;;14.60;48.70;;;;;;5059449;28;20434;-81
2020/12/11 03:47:30;;;;;;;9.20;7.85;;;14.60;48.70;;;;;;5058984;28;20436;-82
2020/12/11 03:49:56;;;;;;;12.07;9.13;;;14.60;48.70;;;;;;5059138;28;20416;-82
2020/12/11 03:52:22;;;;;;;11.13;8.48;;;14.60;48.70;;;;;;5076607;28;20033;-81
2020/12/11 03:54:48;;;;;;;11.05;8.55;;;14.60;48.60;;;;;;5092438;28;20093;-81
2020/12/11 03:57:14;;;;;;;9.95;8.82;;;14.60;48.60;;;;;;5062726;28;20036;-80
2020/12/11 03:59:59;;;;;;;9.57;7.65;;;14.60;48.60;;;;;;5048390;28;20391;-82
2020/12/11 04:02:25;;;;;;;10.35;8.55;;;14.60;48.70;;;;;;5058848;28;20032;-83
2020/12/11 04:05:11;;;;;;;10.18;7.88;;;14.60;48.70;;;;;;5063307;28;20438;-82
2020/12/11 04:07:37;;;;;;;9.80;8.57;;;14.60;48.70;;;;;;5077009;28;20032;-80
2020/12/11 04:10:03;;;;;;;12.65;8.93;;;14.60;48.60;;;;;;5078280;28;20117;-82
2020/12/11 04:12:29;;;;;;;9.32;8.25;;;14.60;48.60;;;;;;5086720;28;20342;-81
2020/12/11 04:15:14;;;;;;;9.02;7.78;;;14.50;48.50;;;;;;5067404;28;20081;-81
2020/12/11 04:17:41;;;;;;;10.00;7.78;;;14.50;48.50;;;;;;5058599;28;20040;-82
2020/12/11 04:20:07;;;;;;;9.93;7.57;;;14.60;48.50;;;;;;5070837;28;20033;-80
2020/12/11 04:22:33;;;;;;;9.55;8.55;;;14.60;48.50;;;;;;5073062;28;20115;-81
2020/12/11 04:25:18;;;;;;;9.30;7.75;;;14.60;48.40;;;;;;5073127;28;20051;-83
2020/12/11 04:27:44;;;;;;;9.68;7.90;;;14.60;48.40;;;;;;5058232;28;20036;-81
2020/12/11 04:30:10;;;;;;;9.50;7.93;;;14.60;48.40;;;;;;5075236;28;20626;-81
2020/12/11 04:32:36;;;;;;;10.13;8.43;;;14.60;48.40;;;;;;5057936;28;20056;-84
2020/12/11 04:35:21;;;;;;;10.80;8.27;;;14.50;48.40;;;;;;5062551;28;20049;-81
2020/12/11 04:37:48;;;;;;;10.68;7.80;;;14.60;48.40;;;;;;5078567;28;20035;-80
2020/12/11 04:40:18;;;;;;;11.45;8.40;;;14.60;48.40;;;;;;5068886;28;20359;-81
2020/12/11 04:42:45;;;;;;;9.20;7.30;;;14.50;48.30;;;;;;5059227;28;20401;-80
2020/12/11 04:45:11;;;;;;;9.48;7.75;;;14.50;48.30;;;;;;5075564;28;20107;-80
2020/12/11 04:47:42;;;;;;;10.88;8.70;;;14.50;48.20;;;;;;5077251;28;20031;-81
2020/12/11 04:50:11;;;;;;;10.07;8.43;;;14.60;48.30;;;;;;5085846;28;20028;-83
2020/12/11 04:52:41;;;;;;;9.88;7.88;;;14.60;48.90;;;;;;5098363;28;20040;-81
2020/12/11 04:55:18;;;;;;;10.10;8.43;;;14.60;48.20;;;;;;5063292;28;20109;-81
2020/12/11 04:57:48;;;;;;;10.80;8.77;;;14.50;48.10;;;;;;5090356;28;20450;-82
2020/12/11 05:00:16;;;;;;;9.85;8.13;;;14.50;48.20;;;;;;5082507;28;20105;-80
2020/12/11 05:03:01;;;;;;;10.00;8.20;;;14.50;48.10;;;;;;5052674;28;20047;-81
2020/12/11 05:05:27;;;;;;;10.35;8.73;;;14.50;48.10;;;;;;5057634;28;20051;-81
2020/12/11 05:08:21;;;;;;;9.40;8.40;;;14.50;48.10;;;;;;5079993;28;20059;-82
2020/12/11 05:10:47;;;;;;;9.85;8.15;;;14.50;48.00;;;;;;5074982;28;20115;-82
2020/12/11 05:13:19;;;;;;;9.30;8.20;;;14.50;48.00;;;;;;5063066;28;20058;-82
2020/12/11 05:16:12;;;;;;;11.27;8.85;;;14.50;48.10;;;;;;5067402;28;20024;-79
2020/12/11 05:18:39;;;;;;;9.60;8.32;;;14.50;48.10;;;;;;5091748;28;20097;-78
2020/12/11 05:21:20;;;;;;;15.23;11.32;;;14.50;48.10;;;;;;5076748;28;20043;-79
2020/12/11 05:23:55;;;;;;;15.05;11.57;;;14.50;47.30;;;;;;5076597;28;20044;-74
2020/12/11 05:26:41;;;;;;;22.38;10.23;;;14.50;47.50;;;;;;5078640;28;20043;-79
2020/12/11 05:29:07;;;;;;;17.08;12.27;;;14.50;47.60;;;;;;5082857;28;20148;-80
2020/12/11 05:31:36;;;;;;;16.48;10.38;;;14.50;47.30;;;;;;5056859;28;20495;-83
2020/12/11 05:34:22;;;;;;;14.52;9.73;;;14.50;47.80;;;;;;5065896;28;20064;-83
2020/12/11 05:36:53;;;;;;;14.25;8.70;;;14.60;48.10;;;;;;5060988;28;20048;-81
2020/12/11 05:39:32;;;;;;;16.50;8.48;;;14.70;48.40;;;;;;5074495;28;20038;-84
2020/12/11 05:42:01;;;;;;;12.15;6.80;;;14.80;48.70;;;;;;5056656;28;20355;-86
2020/12/11 05:44:30;;;;;;;23.48;8.02;;;14.90;48.80;;;;;;5071526;28;20040;-78
2020/12/11 05:46:57;;;;;;;14.93;7.28;;;15.00;49.30;;;;;;5093754;28;20055;-78
2020/12/11 05:49:30;;;;;;;15.13;7.30;;;15.10;49.40;;;;;;5071340;28;20040;-78
2020/12/11 05:52:23;;;;;;;17.08;10.65;;;15.20;50.20;;;;;;5080343;28;20050;-76
2020/12/11 05:54:54;;;;;;;21.23;12.93;;;15.30;49.80;;;;;;5082820;28;20445;-79
2020/12/11 05:57:41;;;;;;;21.45;11.70;;;15.30;48.90;;;;;;5060097;28;20036;-79
2020/12/11 06:00:07;;;;;;;20.98;10.15;;;15.40;49.70;;;;;;5074666;28;20044;-74
2020/12/11 06:02:34;;;;;;;25.92;10.90;;;15.40;49.80;;;;;;5075737;28;20102;-81
2020/12/11 06:05:22;;;;;;;16.48;8.73;;;15.50;50.00;;;;;;5079987;28;20080;-79
2020/12/11 06:07:49;;;;;;;15.55;9.18;;;15.50;50.30;;;;;;5087852;28;20099;-77
2020/12/11 06:10:40;;;;;;;14.70;8.65;;;15.50;50.40;;;;;;5065658;28;20668;-77
2020/12/11 06:13:12;;;;;;;15.05;8.00;;;15.60;50.70;;;;;;5086870;28;20032;-78
2020/12/11 06:15:47;;;;;;;15.10;6.95;;;15.70;50.90;;;;;;5094984;28;20031;-78
2020/12/11 06:18:37;;;;;;;13.93;7.30;;;15.80;51.00;;;;;;5063505;28;20400;-77
2020/12/11 06:21:04;;;;;;;15.85;7.18;;;15.90;51.10;;;;;;5083548;28;20033;-77
2020/12/11 06:23:31;;;;;;;14.90;7.25;;;16.00;51.20;;;;;;5095295;28;20043;-79
2020/12/11 06:26:01;;;;;;;14.32;7.28;;;16.00;51.10;;;;;;5086042;28;20036;-81
2020/12/11 06:28:48;;;;;;;17.23;8.10;;;16.10;51.20;;;;;;5077599;28;20028;-83
2020/12/11 06:31:15;;;;;;;13.65;6.85;;;16.10;51.20;;;;;;5084168;28;20037;-80
2020/12/11 06:34:01;;;;;;;12.45;6.75;;;16.20;51.80;;;;;;5054065;28;20064;-80
2020/12/11 06:36:27;;;;;;;14.52;7.03;;;16.20;51.10;;;;;;5086886;28;20120;-79
2020/12/11 06:38:55;;;;;;;10.50;6.65;;;16.20;51.10;;;;;;5078353;28;20060;-79
2020/12/11 06:41:32;;;;;;;14.20;6.82;;;16.20;51.10;;;;;;5091127;28;20048;-83
2020/12/11 06:44:25;;;;;;;13.68;6.60;;;16.30;51.40;;;;;;5077218;28;20037;-85
2020/12/11 06:47:12;;;;;;;16.02;6.53;;;16.30;51.30;;;;;;5077801;28;20348;-86
2020/12/11 06:50:37;;;;;;;17.77;6.40;;;16.40;51.30;;;;;;5061154;28;20044;-88
2020/12/11 06:53:40;;;;;;;8.77;5.60;;;16.50;51.00;;;;;;4961522;28;20039;-86
2020/12/11 06:56:49;;;;;;;17.17;6.03;;;16.50;50.70;;;;;;5062724;28;20049;-85
2020/12/11 06:59:26;;;;;;;14.55;6.18;;;16.70;50.70;;;;;;5043886;28;20044;-86
2020/12/11 07:02:25;;;;;;;15.63;6.00;;;16.70;50.50;;;;;;5043637;28;20052;-85
2020/12/11 07:04:53;;;;;;;11.68;5.30;;;16.80;50.50;;;;;;5059577;28;20087;-81
2020/12/11 07:07:19;;;;;;;13.18;5.45;;;16.80;50.20;;;;;;5043816;28;20158;-82
2020/12/11 07:09:51;;;;;;;12.10;5.30;;;16.90;50.20;;;;;;5059724;28;20324;-84
2020/12/11 07:12:19;;;;;;;14.75;5.55;;;16.90;50.00;;;;;;5043686;28;20043;-86
2020/12/11 07:14:46;;;;;;;12.60;6.00;;;17.00;49.90;;;;;;5043560;28;20105;-85
2020/12/11 07:17:42;;;;;;;9.25;5.28;;;17.00;49.70;;;;;;5050092;28;20063;-84
2020/12/11 07:20:09;;;;;;;7.05;5.25;;;17.00;49.50;;;;;;5043395;28;20043;-85
2020/12/11 07:22:34;;;;;;;13.60;5.18;;;17.00;49.40;;;;;;5059838;28;20043;-84
2020/12/11 07:25:21;;;;;;;8.15;5.93;;;17.00;49.30;;;;;;5048294;28;20052;-81
2020/12/11 07:27:59;;;;;;;8.25;5.72;;;16.90;49.20;;;;;;5076854;28;20064;-74
2020/12/11 07:30:55;;;;;;;9.30;6.00;;;16.90;49.20;;;;;;5076959;28;20040;-81
2020/12/11 07:33:40;;;;;;;;;;;16.80;49.10;;;;;;5021360;28;20056;-74
2020/12/11 07:36:06;;;;;;;16.80;11.48;;;16.70;49.30;;;;;;5035017;28;19913;-84
2020/12/11 07:38:32;;;;;;;13.65;9.70;;;16.70;49.20;;;;;;5018893;28;20337;-85
2020/12/11 07:40:59;;;;;;;15.15;8.15;;;16.60;49.10;;;;;;5002113;28;20107;-84
2020/12/11 07:43:26;;;;;;;16.73;8.30;;;16.50;49.50;;;;;;5002084;28;20059;-85
2020/12/11 07:45:52;;;;;;;11.98;7.70;;;16.50;49.40;;;;;;5002078;28;20049;-85
2020/12/11 07:48:18;;;;;;;12.00;8.48;;;16.50;49.50;;;;;;5002347;28;20068;-84
2020/12/11 07:50:45;;;;;;;14.93;8.60;;;16.40;49.60;;;;;;5020899;28;20409;-84
2020/12/11 07:53:12;;;;;;;14.43;7.40;;;16.40;49.80;;;;;;5059089;28;20430;-83
2020/12/11 07:55:38;;;;;;;13.00;7.57;;;16.40;50.60;;;;;;5058907;28;20025;-84
2020/12/11 07:58:05;;;;;;;15.77;7.57;;;16.40;50.10;;;;;;5042583;28;20045;-83
2020/12/11 08:00:38;;;;;;;13.75;7.55;;;16.30;49.90;;;;;;5059015;28;20039;-82
2020/12/11 08:03:06;;;;;;;13.10;7.03;;;16.30;49.90;;;;;;5058982;28;20033;-83
2020/12/11 08:05:37;;;;;;;23.17;7.40;;;16.30;49.80;;;;;;5058522;28;20035;-83
2020/12/11 08:08:03;;;;;;;21.65;7.05;;;16.30;49.80;;;;;;5058943;28;20071;-83
2020/12/11 08:10:40;;;;;;;20.92;8.13;;;16.30;49.80;;;;;;5042614;28;20067;-84
2020/12/11 08:13:14;;;;;;;15.60;7.63;;;16.30;49.80;;;;;;5058573;28;20393;-85
2020/12/11 08:15:42;;;;;;;12.15;7.28;;;16.30;49.80;;;;;;5058345;28;20063;-84
2020/12/11 08:18:31;;;;;;;16.15;6.82;;;16.30;49.70;;;;;;5047499;28;20040;-85
2020/12/11 08:20:59;;;;;;;12.73;6.88;;;16.30;49.50;;;;;;5041997;28;20452;-83
2020/12/11 08:23:38;;;;;;;10.27;5.88;;;16.30;49.50;;;;;;5041977;28;20127;-85
2020/12/11 08:26:04;;;;;;;10.77;7.05;;;16.30;49.40;;;;;;5058025;28;20032;-85
2020/12/11 08:28:29;;;;;;;10.57;6.03;;;16.30;49.40;;;;;;5041868;28;20037;-85
2020/12/11 08:30:55;;;;;;;10.60;6.35;;;16.30;49.40;;;;;;5058145;28;20099;-84
2020/12/11 08:33:24;;;;;;;8.07;6.00;;;16.30;49.30;;;;;;5041583;28;20082;-86
2020/12/11 08:35:51;;;;;;;9.18;6.03;;;16.30;49.10;;;;;;5041263;28;20447;-85
2020/12/11 08:38:37;;;;;;;10.13;6.45;;;16.40;49.30;;;;;;5046148;28;20040;-84
2020/12/11 08:41:03;;;;;;;9.10;5.82;;;16.40;49.30;;;;;;5041447;28;20048;-84
2020/12/11 08:43:42;;;;;;;10.73;6.30;;;16.40;49.10;;;;;;5057881;28;20055;-85
2020/12/11 08:46:20;;;;;;;7.90;5.82;;;16.50;49.00;;;;;;5041493;28;20369;-85
2020/12/11 08:49:17;;;;;;;14.23;6.00;;;16.50;49.00;;;;;;5047324;28;20454;-85
2020/12/11 08:51:42;;;;;;;13.23;10.30;;;16.50;49.00;;;;;;5075487;28;20078;-84
2020/12/11 08:54:14;;;;;;;13.65;8.38;;;16.60;49.00;;;;;;5017126;28;20085;-87
2020/12/11 08:56:54;;;;;;;14.02;7.45;;;16.50;48.90;;;;;;5017009;28;20041;-88
2020/12/11 08:59:49;;;;;;;16.42;8.25;;;16.50;49.00;;;;;;5001985;28;20045;-89
2020/12/11 09:02:38;;;;;;;13.18;7.35;;;16.50;49.00;;;;;;5016974;28;20059;-87
2020/12/11 09:05:05;;;;;;;15.90;8.10;;;16.50;49.00;;;;;;5000606;28;20057;-86
2020/12/11 09:07:44;;;;;;;15.82;8.15;;;16.50;49.20;;;;;;5000377;28;20670;-88
2020/12/11 09:14:10;;;;;;;13.30;7.32;;;16.40;49.40;;;;;;5026564;28;20128;-90
2020/12/11 09:18:12;;;;;;;;;;;;;;;;;;;;;
2020/12/11 09:21:46;;;;;;;9.50;6.88;;;16.40;49.30;;;;;;4961357;28;20083;-88
2020/12/11 09:24:50;;;;;;;11.25;7.13;;;16.40;49.50;;;;;;5018642;28;20071;-88
2020/12/11 09:28:08;;;;;;;12.45;7.15;;;16.40;49.70;;;;;;5043552;28;20109;-88
2020/12/11 09:30:56;;;;;;;9.18;7.47;;;16.30;49.70;;;;;;5040367;28;20052;-88
2020/12/11 10:38:14;;;;;;;21.85;12.95;;;15.80;48.50;;;;;;5267903;23;20429;-82
2020/12/11 10:48:24;;;;;;;18.50;8.57;;;15.70;47.10;;;;;;5032429;23;20424;-85
2020/12/11 10:50:50;;;;;;;20.52;10.02;;;15.70;47.60;;;;;;4902160;29;20111;-80
2020/12/11 10:56:57;;;;;;;15.43;9.73;;;15.70;47.30;;;;;;4902490;29;20043;-79
2020/12/11 10:59:23;;;;;;;12.85;9.60;;;15.60;48.00;;;;;;4902635;29;20400;-82
2020/12/11 11:02:08;;;;;;;13.73;9.85;;;15.60;47.40;;;;;;4861341;29;20037;-82
2020/12/11 11:04:54;;;;;;;15.73;10.35;;;15.60;47.50;;;;;;4876083;29;20107;-82
2020/12/11 11:07:41;;;;;;;13.07;10.02;;;15.60;47.60;;;;;;4888495;29;20098;-83
2020/12/11 11:12:44;;;;;;;11.20;9.10;;;15.50;47.60;;;;;;4903177;29;20040;-85
2020/12/11 11:26:56;;;;;;;7.22;6.07;;;15.80;48.40;;;;;;4885901;29;20048;-85
2020/12/11 11:29:24;;;;;;;10.57;5.80;;;15.90;48.20;;;;;;4901081;29;20115;-76
2020/12/11 11:32:09;;;;;;;6.93;5.28;;;15.90;48.20;;;;;;4888793;29;20062;-77
2020/12/11 11:34:55;;;;;;;8.05;5.70;;;16.00;48.30;;;;;;4887688;29;20048;-79
2020/12/11 11:37:41;;;;;;;7.65;4.95;;;16.00;48.10;;;;;;4875254;29;20059;-78
2020/12/11 11:40:19;;;;;;;8.27;5.10;;;16.10;48.00;;;;;;4901884;29;20420;-83
2020/12/11 11:43:07;;;;;;;7.20;4.80;;;16.10;47.90;;;;;;4887492;29;20088;-81
2020/12/11 11:45:37;;;;;;;9.68;5.45;;;16.20;47.90;;;;;;4883852;29;20045;-85
2020/12/11 11:48:15;;;;;;;6.65;4.93;;;16.20;48.10;;;;;;4885222;29;20048;-84
2020/12/11 11:51:01;;;;;;;8.25;4.60;;;16.20;48.20;;;;;;4884763;29;20076;-82
2020/12/11 11:53:27;;;;;;;4.90;4.28;;;16.30;48.20;;;;;;4900759;29;20049;-84
2020/12/11 11:55:53;;;;;;;7.18;4.68;;;16.30;48.30;;;;;;4900197;29;20050;-84
2020/12/11 11:58:20;;;;;;;5.63;4.32;;;16.30;48.30;;;;;;4885010;29;20060;-82
2020/12/11 12:00:46;;;;;;;8.43;4.35;;;16.40;48.40;;;;;;4900489;29;20036;-83
2020/12/11 12:03:32;;;;;;;5.25;3.83;;;16.40;48.40;;;;;;4887325;29;20064;-82
2020/12/11 12:05:58;;;;;;;5.10;4.38;;;16.40;48.40;;;;;;4884915;29;20080;-83
2020/12/11 12:08:44;;;;;;;7.43;4.28;;;16.50;48.50;;;;;;4887331;29;20413;-84
2020/12/11 12:11:14;;;;;;;6.82;4.25;;;16.50;48.40;;;;;;4884655;29;20109;-84
2020/12/11 12:13:40;;;;;;;6.90;4.30;;;16.50;48.50;;;;;;4900252;29;20037;-84
2020/12/11 12:16:05;;;;;;;5.10;4.07;;;16.50;48.40;;;;;;4899864;29;20045;-81
2020/12/11 12:18:31;;;;;;;5.55;4.40;;;16.50;48.40;;;;;;4901054;29;20119;-83
2020/12/11 12:22:07;;;;;;;6.20;4.28;;;16.50;48.30;;;;;;4887355;29;20075;-81
2020/12/11 12:27:48;;;;;;;6.43;4.05;;;16.50;48.30;;;;;;4900856;29;20032;-81
2020/12/11 12:29:34;;;;;;;25.05;6.47;;;16.60;48.50;;;;;;4893806;29;20041;-82
2020/12/11 12:32:14;;;;;;;28.83;6.30;;;16.60;48.40;;;;;;4884394;29;20100;-84
2020/12/11 12:35:02;;;;;;;14.90;5.30;;;16.60;48.20;;;;;;4886916;29;20053;-82
2020/12/11 12:40:47;;;;;;;13.18;4.03;;;16.60;48.30;;;;;;4887198;29;20127;-81
2020/12/11 12:45:37;;;;;;;14.45;4.55;;;16.70;48.40;;;;;;4884447;29;20105;-84
2020/12/11 12:48:03;;;;;;;11.93;3.90;;;16.70;48.20;;;;;;4897518;29;20404;-83
2020/12/11 12:50:29;;;;;;;16.67;4.65;;;16.80;48.20;;;;;;4868747;29;20060;-83
2020/12/11 12:52:55;;;;;;;9.65;4.70;;;16.70;48.10;;;;;;4868805;29;20072;-83
2020/12/11 12:55:25;;;;;;;13.68;4.32;;;16.80;48.20;;;;;;4899974;29;20037;-80
2020/12/11 12:57:59;;;;;;;13.47;4.83;;;16.80;48.20;;;;;;4884742;29;20040;-86
2020/12/11 13:01:14;;;;;;;10.73;4.72;;;16.80;48.20;;;;;;4868679;29;20044;-85
2020/12/11 13:03:30;;;;;;;12.65;4.55;;;16.80;48.00;;;;;;4878576;29;20441;-86
2020/12/11 13:05:55;;;;;;;9.60;4.35;;;16.80;48.00;;;;;;4883747;29;20032;-85
2020/12/11 13:08:21;;;;;;;8.95;4.25;;;16.90;47.90;;;;;;4868399;29;20135;-85
2020/12/11 13:11:07;;;;;;;12.77;4.03;;;16.90;47.90;;;;;;4873746;29;20040;-87
2020/12/11 13:13:53;;;;;;;8.68;3.53;;;16.90;47.80;;;;;;4873373;29;20341;-86
2020/12/11 13:16:20;;;;;;;7.38;3.10;;;16.90;47.70;;;;;;4884199;29;20119;-85
2020/12/11 13:18:46;;;;;;;7.03;3.83;;;16.90;47.70;;;;;;4883664;29;20036;-86
2020/12/11 13:21:18;;;;;;;6.63;3.70;;;17.00;47.70;;;;;;4883516;29;20096;-87
2020/12/11 13:27:05;;;;;;;5.82;3.60;;;17.00;47.70;;;;;;4883971;29;20025;-80
2020/12/11 13:29:31;;;;;;;8.63;3.88;;;17.00;48.40;;;;;;4882568;29;20048;-82
2020/12/11 13:31:59;;;;;;;10.32;4.32;;;16.90;47.80;;;;;;4903939;29;20055;-83
2020/12/11 13:34:46;;;;;;;6.85;3.90;;;17.00;48.00;;;;;;4885862;29;20056;-80
2020/12/11 13:37:32;;;;;;;12.38;8.18;;;17.00;48.00;;;;;;4886170;29;20127;-81
2020/12/11 13:40:18;;;;;;;10.57;4.80;;;16.90;47.60;;;;;;4860489;29;20049;-80
2020/12/11 14:46:05;;;;;;;6.15;3.20;;;17.50;47.50;;;;;;5162277;27;20315;-77
2020/12/11 14:48:54;;;;;;;5.07;2.70;;;17.60;47.70;;;;;;5136791;27;20515;-78
2020/12/11 14:51:30;;;;;;;14.18;3.20;;;17.60;47.60;;;;;;5148953;27;20088;-86
2020/12/11 14:53:57;;;;;;;7.13;3.50;;;17.70;47.50;;;;;;5118256;27;20073;-86
2020/12/11 14:56:44;;;;;;;11.13;3.13;;;17.70;47.60;;;;;;5124163;27;20065;-86
2020/12/11 14:59:12;;;;;;;6.90;3.45;;;17.70;47.60;;;;;;5135397;27;20397;-87
2020/12/11 15:01:38;;;;;;;8.68;3.03;;;17.70;47.50;;;;;;5118332;27;20039;-87
2020/12/11 15:04:10;;;;;;;12.77;3.63;;;17.70;47.40;;;;;;5118492;27;20069;-82
2020/12/11 15:07:10;;;;;;;10.48;3.58;;;17.70;47.50;;;;;;5138361;27;20111;-86
2020/12/11 15:09:37;;;;;;;8.45;3.53;;;17.70;47.60;;;;;;5135705;27;20035;-81
2020/12/11 15:12:03;;;;;;;7.57;3.47;;;17.70;47.50;;;;;;5153500;27;20053;-80
2020/12/11 15:14:29;;;;;;;9.50;3.55;;;17.70;47.40;;;;;;5153839;27;20132;-80
2020/12/11 15:16:55;;;;;;;6.03;3.05;;;17.70;47.40;;;;;;5153320;27;20109;-80
2020/12/11 15:19:21;;;;;;;8.25;3.55;;;17.70;47.40;;;;;;5153111;27;20035;-77
2020/12/11 15:21:47;;;;;;;9.00;3.33;;;17.70;47.40;;;;;;5153299;27;20039;-83
2020/12/11 15:24:15;;;;;;;9.90;3.13;;;17.70;47.40;;;;;;5118118;27;20060;-85
2020/12/11 15:27:01;;;;;;;9.38;3.25;;;17.70;47.40;;;;;;5123673;27;20039;-84
2020/12/11 15:29:28;;;;;;;9.73;3.00;;;17.70;47.40;;;;;;5135183;27;20027;-84
2020/12/11 15:32:14;;;;;;;10.40;2.90;;;17.70;47.40;;;;;;5123631;27;20124;-84
2020/12/11 15:35:03;;;;;;;11.25;3.10;;;17.70;47.40;;;;;;5135641;27;20514;-89
2020/12/11 15:37:32;;;;;;;15.05;3.70;;;17.70;47.70;;;;;;5116736;27;20103;-81
2020/12/11 15:39:57;;;;;;;10.20;2.88;;;17.70;47.80;;;;;;5134224;27;20031;-81
2020/12/11 15:42:43;;;;;;;13.57;3.25;;;17.70;47.80;;;;;;5123939;27;20066;-81
2020/12/11 15:45:09;;;;;;;16.98;4.32;;;17.70;47.90;;;;;;5147800;27;20059;-80
2020/12/11 15:47:35;;;;;;;11.55;3.55;;;17.70;47.90;;;;;;5098420;27;20039;-79
2020/12/11 15:50:24;;;;;;;10.57;3.35;;;17.70;48.10;;;;;;5117719;27;20047;-84
2020/12/11 15:53:00;;;;;;;30.23;12.65;;;17.60;48.10;;;;;;5128677;27;20053;-85
2020/12/11 15:55:27;;;;;;;15.73;5.85;;;17.60;48.70;;;;;;5118059;28;20043;-83
2020/12/11 15:58:13;;;;;;;13.73;4.78;;;17.50;48.80;;;;;;5090153;27;20115;-85
2020/12/11 16:00:59;;;;;;;24.42;10.30;;;17.50;48.70;;;;;;5089302;27;20067;-85
2020/12/11 16:03:24;;;;;;;21.83;13.68;;;17.50;51.10;;;;;;5117049;27;20054;-80
2020/12/11 16:05:52;;;;;;;20.25;12.07;;;17.50;53.80;;;;;;5138545;27;20042;-83
2020/12/11 16:08:18;;;;;;;22.65;9.27;;;17.50;54.80;;;;;;5119845;27;20035;-81